Time;durP1;ratioP1;P1;durP2;ratioP2;P2;SDS_P1;SDS_P2;PMS_P1;PMS_P2;Temp;Humidity;BMP_temperature;BMP_pressure;BME280_temperature;BME280_humidity;BME280_pressure;Samples;Min_cycle;Max_cycle;Signal;HPM_P1;HPM_P2
2022/07/28 00:00:22;;;;;;;4.53;2.20;;;10.80;99.90;;;;;;5025905;28;20036;-76
2022/07/28 00:02:48;;;;;;;4.07;2.30;;;10.80;99.90;;;;;;5040831;28;20650;-77
2022/07/28 00:05:14;;;;;;;3.38;1.90;;;10.70;99.90;;;;;;5059276;28;20043;-77
2022/07/28 00:07:39;;;;;;;6.05;2.40;;;10.70;99.90;;;;;;5040715;28;20059;-77
2022/07/28 00:10:06;;;;;;;2.75;2.00;;;10.70;99.90;;;;;;5028126;28;20040;-77
2022/07/28 00:12:32;;;;;;;6.65;2.42;;;10.70;99.90;;;;;;5037221;28;20056;-77
2022/07/28 00:14:58;;;;;;;3.67;2.10;;;10.70;99.90;;;;;;5030057;28;20036;-77
2022/07/28 00:17:23;;;;;;;7.00;2.20;;;10.60;99.90;;;;;;5026200;28;20045;-77
2022/07/28 00:19:49;;;;;;;4.13;2.30;;;10.60;99.90;;;;;;5058456;28;20034;-77
2022/07/28 00:22:15;;;;;;;4.25;2.83;;;10.60;99.90;;;;;;5006221;28;20123;-78
2022/07/28 00:24:41;;;;;;;4.53;2.15;;;10.60;99.90;;;;;;5056466;28;20037;-77
2022/07/28 00:27:07;;;;;;;4.47;2.22;;;10.60;99.90;;;;;;5005946;28;20047;-77
2022/07/28 00:29:33;;;;;;;5.35;2.33;;;10.60;99.90;;;;;;5062690;28;20036;-77
2022/07/28 00:31:59;;;;;;;5.15;3.40;;;10.60;99.90;;;;;;5012193;28;20036;-77
2022/07/28 00:34:24;;;;;;;3.90;2.20;;;10.60;99.90;;;;;;5003241;28;20060;-77
2022/07/28 00:36:50;;;;;;;4.00;2.13;;;10.60;99.90;;;;;;5046934;28;20068;-76
2022/07/28 00:39:16;;;;;;;10.27;3.13;;;10.60;99.90;;;;;;5027891;28;20470;-75
2022/07/28 00:41:41;;;;;;;4.78;2.17;;;10.60;99.90;;;;;;5027133;28;20068;-76
2022/07/28 00:44:08;;;;;;;5.18;2.20;;;10.60;99.90;;;;;;5024295;28;20114;-77
2022/07/28 00:46:34;;;;;;;4.10;2.15;;;10.60;99.90;;;;;;5042292;28;20045;-76
2022/07/28 00:49:00;;;;;;;4.25;2.00;;;10.70;99.90;;;;;;5022565;28;20524;-76
2022/07/28 00:51:26;;;;;;;4.07;2.47;;;10.70;99.90;;;;;;5011544;28;20036;-76
2022/07/28 00:53:53;;;;;;;8.05;2.97;;;10.70;99.90;;;;;;5042399;28;20036;-77
2022/07/28 00:56:20;;;;;;;6.10;2.38;;;10.80;99.90;;;;;;5044824;28;20511;-77
2022/07/28 00:58:46;;;;;;;3.83;2.05;;;10.80;99.90;;;;;;5024318;28;20033;-76
2022/07/28 01:01:18;;;;;;;5.65;2.25;;;10.80;99.90;;;;;;5028037;28;20079;-76
2022/07/28 01:03:56;;;;;;;8.25;3.22;;;10.80;99.90;;;;;;5039126;28;20036;-77
2022/07/28 01:06:21;;;;;;;5.25;1.95;;;10.80;99.90;;;;;;5043882;28;20340;-76
2022/07/28 01:09:17;;;;;;;3.88;2.00;;;10.80;99.90;;;;;;5040897;28;20119;-76
2022/07/28 01:11:59;;;;;;;4.43;2.03;;;10.80;99.90;;;;;;5040575;28;20045;-76
2022/07/28 01:14:36;;;;;;;5.53;2.47;;;10.80;99.90;;;;;;5034870;28;20164;-76
2022/07/28 01:17:13;;;;;;;3.78;2.13;;;10.80;99.90;;;;;;5040731;28;20056;-76
2022/07/28 01:19:49;;;;;;;4.22;2.22;;;10.80;99.90;;;;;;5033433;28;20105;-76
2022/07/28 01:22:21;;;;;;;4.80;1.90;;;10.80;99.90;;;;;;5023561;28;20261;-76
2022/07/28 01:25:03;;;;;;;3.35;2.08;;;10.90;99.90;;;;;;5022475;28;20044;-76
2022/07/28 01:27:47;;;;;;;2.95;1.73;;;10.80;99.90;;;;;;5040297;28;20118;-76
2022/07/28 01:30:37;;;;;;;4.53;2.08;;;10.80;99.90;;;;;;5039824;28;20041;-76
2022/07/28 01:33:10;;;;;;;3.67;2.10;;;10.80;99.90;;;;;;5038886;28;20045;-76
2022/07/28 01:35:50;;;;;;;1.80;1.60;;;10.80;99.90;;;;;;5039284;28;20124;-76
2022/07/28 01:38:18;;;;;;;4.20;2.50;;;10.80;99.90;;;;;;5038709;28;20029;-76
2022/07/28 01:40:45;;;;;;;5.35;2.15;;;10.70;99.90;;;;;;5036020;28;20037;-77
2022/07/28 01:43:19;;;;;;;2.97;1.65;;;10.70;99.90;;;;;;5029271;28;20049;-77
2022/07/28 01:45:46;;;;;;;3.78;2.03;;;10.70;99.90;;;;;;5007069;28;20080;-76
2022/07/28 01:48:15;;;;;;;3.20;2.28;;;10.70;99.90;;;;;;5008489;28;20126;-77
2022/07/28 01:50:42;;;;;;;3.67;2.03;;;10.60;99.90;;;;;;5024748;28;20036;-76
2022/07/28 01:53:14;;;;;;;5.00;1.95;;;10.70;99.90;;;;;;5008812;28;20045;-76
2022/07/28 01:55:42;;;;;;;5.38;1.85;;;10.60;99.90;;;;;;5008806;28;20042;-77
2022/07/28 01:58:10;;;;;;;5.13;2.80;;;10.60;99.90;;;;;;5007116;28;20517;-76
2022/07/28 02:00:37;;;;;;;3.97;1.80;;;10.60;99.90;;;;;;4991226;28;20521;-76
2022/07/28 02:03:05;;;;;;;3.78;2.10;;;10.60;99.90;;;;;;5008004;28;20044;-76
2022/07/28 02:05:33;;;;;;;2.72;2.00;;;10.50;99.90;;;;;;4991694;28;20124;-77
2022/07/28 02:08:02;;;;;;;5.85;2.10;;;10.50;99.90;;;;;;5008506;28;20122;-76
2022/07/28 02:10:28;;;;;;;3.58;2.00;;;10.50;99.90;;;;;;4991679;28;20371;-76
2022/07/28 02:12:56;;;;;;;5.30;1.90;;;10.50;99.90;;;;;;5007508;28;20079;-76
2022/07/28 02:15:25;;;;;;;5.15;2.10;;;10.50;99.90;;;;;;5007124;28;20063;-77
2022/07/28 02:17:52;;;;;;;6.55;2.17;;;10.40;99.90;;;;;;5008055;28;20495;-77
2022/07/28 02:20:20;;;;;;;5.47;2.55;;;10.40;99.90;;;;;;4989762;28;20041;-76
2022/07/28 02:22:47;;;;;;;6.80;2.33;;;10.40;99.90;;;;;;5007374;28;20056;-76
2022/07/28 02:25:13;;;;;;;7.78;2.50;;;10.30;99.90;;;;;;5009596;28;20273;-76
2022/07/28 02:27:45;;;;;;;3.42;2.10;;;10.30;99.90;;;;;;5006665;28;20041;-77
2022/07/28 02:30:17;;;;;;;8.65;2.90;;;10.30;99.90;;;;;;5008157;28;20047;-77
2022/07/28 02:32:47;;;;;;;3.40;2.20;;;10.30;99.90;;;;;;4991978;28;20055;-76
2022/07/28 02:35:32;;;;;;;5.20;1.98;;;10.30;99.90;;;;;;5005761;28;20065;-77
2022/07/28 02:38:06;;;;;;;5.88;2.60;;;10.20;99.90;;;;;;5024376;28;20049;-77
2022/07/28 02:40:37;;;;;;;5.05;2.60;;;10.20;99.90;;;;;;5011408;28;20564;-76
2022/07/28 02:43:07;;;;;;;5.60;2.40;;;10.20;99.90;;;;;;5025857;28;20405;-76
2022/07/28 02:45:35;;;;;;;6.70;2.30;;;10.20;99.90;;;;;;5034699;28;20079;-76
2022/07/28 02:48:06;;;;;;;6.65;2.53;;;10.20;99.90;;;;;;5031172;28;20172;-75
2022/07/28 02:50:31;;;;;;;4.63;2.55;;;10.20;99.90;;;;;;5034795;28;20155;-76
2022/07/28 02:53:01;;;;;;;6.85;2.75;;;10.20;99.90;;;;;;5037195;28;20119;-75
2022/07/28 02:55:27;;;;;;;5.20;2.50;;;10.20;99.90;;;;;;5018120;28;20049;-76
2022/07/28 02:57:54;;;;;;;5.03;2.58;;;10.20;99.90;;;;;;5023642;28;20037;-76
2022/07/28 03:00:21;;;;;;;4.13;2.67;;;10.20;99.90;;;;;;5017405;28;20098;-76
2022/07/28 03:02:48;;;;;;;4.93;2.55;;;10.20;99.90;;;;;;5017939;28;20041;-76
2022/07/28 03:05:15;;;;;;;6.13;2.58;;;10.20;99.90;;;;;;5032752;28;20109;-75
2022/07/28 03:07:41;;;;;;;4.40;2.85;;;10.10;99.90;;;;;;5030567;28;20038;-76
2022/07/28 03:10:15;;;;;;;4.03;2.75;;;10.10;99.90;;;;;;5054901;28;20451;-76
2022/07/28 03:12:41;;;;;;;5.95;2.50;;;10.10;99.90;;;;;;5015545;28;20037;-76
2022/07/28 03:15:07;;;;;;;6.68;2.95;;;10.10;99.90;;;;;;5036928;28;20060;-76
2022/07/28 03:17:33;;;;;;;7.25;3.08;;;10.10;99.90;;;;;;5020638;28;20056;-77
2022/07/28 03:19:58;;;;;;;6.22;2.88;;;10.10;99.90;;;;;;5019135;28;20558;-76
2022/07/28 03:22:24;;;;;;;4.28;2.70;;;10.40;99.90;;;;;;5022443;28;20117;-76
2022/07/28 03:24:53;;;;;;;3.65;2.60;;;10.10;99.90;;;;;;5037408;28;20048;-75
2022/07/28 03:27:26;;;;;;;5.80;2.70;;;10.00;99.90;;;;;;5017339;28;20037;-76
2022/07/28 03:29:56;;;;;;;5.72;3.17;;;10.00;99.90;;;;;;5053598;28;20065;-76
2022/07/28 03:32:25;;;;;;;5.60;2.90;;;10.00;99.90;;;;;;5022571;28;20124;-76
2022/07/28 03:34:51;;;;;;;9.98;4.20;;;10.00;99.90;;;;;;5037962;28;20033;-75
2022/07/28 03:37:24;;;;;;;5.50;2.92;;;10.00;99.90;;;;;;5002220;28;20052;-76
2022/07/28 03:39:51;;;;;;;5.45;3.15;;;10.00;99.90;;;;;;5036973;28;20466;-76
2022/07/28 03:42:18;;;;;;;6.82;3.30;;;10.00;99.90;;;;;;5018105;28;20060;-76
2022/07/28 03:44:47;;;;;;;9.52;3.20;;;10.00;99.90;;;;;;5023533;28;20103;-75
2022/07/28 03:47:14;;;;;;;7.20;2.88;;;10.00;99.90;;;;;;5007291;28;20120;-77
2022/07/28 03:49:40;;;;;;;5.90;3.63;;;10.00;99.90;;;;;;5041210;28;20067;-76
2022/07/28 03:52:05;;;;;;;8.75;3.33;;;9.90;99.90;;;;;;5041310;28;20060;-75
2022/07/28 03:54:31;;;;;;;5.88;3.42;;;9.90;99.90;;;;;;5007896;28;20488;-75
2022/07/28 03:56:57;;;;;;;6.30;3.10;;;9.90;99.90;;;;;;5037028;28;20048;-76
2022/07/28 03:59:23;;;;;;;6.93;3.65;;;9.90;99.90;;;;;;5020480;28;20045;-76
2022/07/28 04:01:49;;;;;;;8.70;3.50;;;9.90;99.90;;;;;;5032478;28;20040;-76
2022/07/28 04:04:15;;;;;;;5.45;2.95;;;9.90;99.90;;;;;;5053344;28;20048;-76
2022/07/28 04:06:41;;;;;;;4.50;2.95;;;9.80;99.90;;;;;;5019266;28;20036;-76
2022/07/28 04:09:06;;;;;;;5.45;2.85;;;9.70;99.90;;;;;;5024312;28;20037;-75
2022/07/28 04:11:32;;;;;;;4.38;2.67;;;9.70;99.90;;;;;;5028926;28;20040;-76
2022/07/28 04:13:58;;;;;;;5.35;2.92;;;9.70;99.90;;;;;;5010992;28;20480;-76
2022/07/28 04:16:23;;;;;;;4.82;3.25;;;9.60;99.90;;;;;;5023145;28;20041;-76
2022/07/28 04:18:49;;;;;;;4.80;3.00;;;9.60;99.90;;;;;;5025661;28;20040;-76
2022/07/28 04:21:15;;;;;;;6.18;3.17;;;9.50;99.90;;;;;;5040725;28;20056;-76
2022/07/28 04:23:41;;;;;;;5.65;3.03;;;9.50;99.90;;;;;;5046851;28;20040;-76
2022/07/28 04:26:06;;;;;;;6.28;3.33;;;9.50;99.90;;;;;;5045227;28;20489;-76
2022/07/28 04:28:32;;;;;;;6.95;4.25;;;9.50;99.90;;;;;;5010164;28;20115;-76
2022/07/28 04:30:58;;;;;;;8.07;3.40;;;9.50;99.90;;;;;;5016528;28;20073;-75
2022/07/28 04:33:24;;;;;;;5.80;3.75;;;9.50;99.90;;;;;;5035954;28;20404;-76
2022/07/28 04:35:51;;;;;;;6.80;4.25;;;9.50;99.90;;;;;;5061025;28;20025;-75
2022/07/28 04:38:19;;;;;;;7.95;4.40;;;9.50;99.90;;;;;;5022670;28;20091;-75
2022/07/28 04:40:48;;;;;;;6.78;4.40;;;9.50;99.90;;;;;;5045657;28;20047;-75
2022/07/28 04:43:14;;;;;;;7.95;4.85;;;9.60;99.90;;;;;;5021812;28;20375;-76
2022/07/28 04:45:39;;;;;;;7.93;5.43;;;9.60;99.90;;;;;;5008404;28;20037;-76
2022/07/28 04:48:05;;;;;;;9.00;4.97;;;9.60;99.90;;;;;;4991305;28;20119;-75
2022/07/28 04:50:31;;;;;;;9.20;5.15;;;9.60;99.90;;;;;;5009636;28;21799;-77
2022/07/28 04:52:58;;;;;;;8.73;5.10;;;9.70;99.90;;;;;;5013910;28;20033;-75
2022/07/28 04:55:24;;;;;;;10.15;5.03;;;9.70;99.90;;;;;;4974383;28;20575;-75
2022/07/28 04:57:50;;;;;;;8.13;4.43;;;9.70;99.90;;;;;;4977275;28;20045;-75
2022/07/28 05:00:16;;;;;;;6.82;4.78;;;9.70;99.90;;;;;;5006371;28;20059;-76
2022/07/28 05:02:44;;;;;;;9.10;4.63;;;9.80;99.90;;;;;;4980540;28;20578;-75
2022/07/28 05:05:11;;;;;;;8.93;5.38;;;9.90;99.90;;;;;;5013909;28;20517;-75
2022/07/28 05:07:40;;;;;;;6.55;4.55;;;9.90;99.90;;;;;;5013217;28;20041;-75
2022/07/28 05:10:09;;;;;;;11.30;5.32;;;9.90;99.90;;;;;;5014241;28;20675;-75
2022/07/28 05:12:35;;;;;;;13.05;6.03;;;10.00;99.90;;;;;;5029767;28;20041;-75
2022/07/28 05:15:01;;;;;;;10.70;6.25;;;10.00;99.90;;;;;;5041895;28;20048;-75
2022/07/28 05:17:26;;;;;;;9.45;6.10;;;10.00;99.90;;;;;;5013507;28;20041;-75
2022/07/28 05:19:52;;;;;;;7.85;4.78;;;10.00;99.90;;;;;;4995222;28;20046;-75
2022/07/28 05:22:18;;;;;;;10.60;6.10;;;10.10;99.90;;;;;;4975385;28;20553;-76
2022/07/28 05:24:44;;;;;;;9.68;5.70;;;10.10;99.90;;;;;;5006369;28;20033;-75
2022/07/28 05:27:11;;;;;;;10.32;5.60;;;10.20;99.90;;;;;;4991865;28;20483;-76
2022/07/28 05:29:40;;;;;;;8.50;5.20;;;10.30;99.90;;;;;;5008247;28;20064;-75
2022/07/28 05:32:07;;;;;;;11.13;5.32;;;10.30;99.90;;;;;;5010017;28;20041;-75
2022/07/28 05:34:33;;;;;;;9.52;5.03;;;10.30;99.90;;;;;;5009615;28;20034;-75
2022/07/28 05:37:01;;;;;;;9.20;5.60;;;10.40;99.90;;;;;;4976959;28;20052;-75
2022/07/28 05:39:31;;;;;;;9.13;5.95;;;10.40;99.90;;;;;;4987971;28;20046;-75
2022/07/28 05:41:58;;;;;;;12.88;5.80;;;10.50;99.90;;;;;;5011607;28;20392;-75
2022/07/28 05:44:24;;;;;;;10.48;5.75;;;10.50;99.90;;;;;;5029929;28;20136;-75
2022/07/28 05:46:50;;;;;;;10.52;5.82;;;10.60;99.90;;;;;;5043324;28;20048;-75
2022/07/28 05:49:16;;;;;;;9.68;5.63;;;10.60;99.90;;;;;;5034368;28;20043;-75
2022/07/28 05:51:41;;;;;;;11.50;6.55;;;10.70;99.90;;;;;;5036709;28;20040;-76
2022/07/28 05:54:07;;;;;;;6.10;5.40;;;10.80;99.90;;;;;;5029025;28;20064;-75
2022/07/28 05:56:33;;;;;;;9.80;5.75;;;10.80;99.90;;;;;;5037553;28;20049;-75
2022/07/28 05:58:59;;;;;;;9.32;5.65;;;10.90;99.90;;;;;;5018414;28;20582;-75
2022/07/28 06:01:25;;;;;;;8.55;5.22;;;11.00;99.90;;;;;;5040189;28;20040;-76
2022/07/28 06:03:51;;;;;;;10.40;4.80;;;11.00;99.90;;;;;;5036083;28;20120;-75
2022/07/28 06:06:18;;;;;;;9.00;5.07;;;11.10;99.90;;;;;;5039921;28;20505;-77
2022/07/28 06:08:45;;;;;;;6.88;5.22;;;11.20;99.90;;;;;;5035942;28;20513;-75
2022/07/28 06:11:12;;;;;;;9.77;4.80;;;11.30;99.90;;;;;;5027808;28;20139;-76
2022/07/28 06:13:38;;;;;;;10.82;4.65;;;11.40;99.90;;;;;;5024528;28;20560;-75
2022/07/28 06:16:05;;;;;;;8.48;4.97;;;11.50;99.90;;;;;;4998702;28;20055;-76
2022/07/28 06:18:32;;;;;;;7.93;4.63;;;11.60;99.90;;;;;;5021177;28;20041;-76
2022/07/28 06:20:57;;;;;;;9.65;4.18;;;11.70;99.90;;;;;;5046318;28;20036;-76
2022/07/28 06:23:23;;;;;;;10.73;4.38;;;11.80;99.90;;;;;;5037127;28;20370;-76
2022/07/28 06:25:50;;;;;;;8.85;3.60;;;12.00;99.90;;;;;;5033195;28;20482;-77
2022/07/28 06:28:17;;;;;;;6.22;3.78;;;12.10;99.90;;;;;;5053655;28;20032;-76
2022/07/28 06:30:47;;;;;;;4.50;3.00;;;12.30;99.90;;;;;;5052101;28;20037;-76
2022/07/28 06:33:14;;;;;;;7.20;3.40;;;12.40;99.90;;;;;;5057590;28;20375;-76
2022/07/28 06:35:40;;;;;;;10.27;3.72;;;12.60;99.90;;;;;;5014944;28;20570;-76
2022/07/28 06:38:06;;;;;;;8.65;3.60;;;12.80;99.90;;;;;;5017776;28;20037;-76
2022/07/28 06:40:32;;;;;;;9.05;3.47;;;13.00;99.90;;;;;;5012066;28;21237;-76
2022/07/28 06:42:57;;;;;;;8.40;3.00;;;13.20;99.90;;;;;;5032283;28;20128;-77
2022/07/28 06:45:23;;;;;;;6.53;3.10;;;13.40;99.90;;;;;;5018473;28;20040;-78
2022/07/28 06:47:49;;;;;;;6.40;3.22;;;13.60;99.90;;;;;;5003669;28;20044;-76
2022/07/28 06:50:16;;;;;;;4.10;2.50;;;13.80;99.90;;;;;;5027852;28;20036;-77
2022/07/28 06:52:41;;;;;;;5.20;2.30;;;13.90;99.90;;;;;;5028388;28;20571;-77
2022/07/28 06:55:07;;;;;;;7.32;2.35;;;14.00;99.90;;;;;;5008787;28;20041;-77
2022/07/28 06:57:33;;;;;;;5.63;2.10;;;14.10;99.90;;;;;;5028192;28;20077;-77
2022/07/28 07:00:05;;;;;;;10.57;2.75;;;14.20;99.90;;;;;;5028885;28;20469;-77
2022/07/28 07:02:32;;;;;;;4.10;2.00;;;14.30;99.90;;;;;;5029601;28;20047;-77
2022/07/28 07:04:57;;;;;;;6.32;1.95;;;14.40;99.90;;;;;;5028714;28;20099;-77
2022/07/28 07:07:24;;;;;;;6.43;1.80;;;14.50;99.90;;;;;;4994888;28;20136;-76
2022/07/28 07:09:50;;;;;;;2.83;1.70;;;14.60;99.90;;;;;;5010769;28;20053;-76
2022/07/28 07:12:15;;;;;;;2.38;1.30;;;14.60;99.90;;;;;;5014266;28;20041;-76
2022/07/28 07:14:41;;;;;;;4.60;1.35;;;14.80;99.90;;;;;;5010087;28;20037;-76
2022/07/28 07:17:07;;;;;;;4.25;1.58;;;14.80;99.90;;;;;;4993878;28;20666;-76
2022/07/28 07:19:32;;;;;;;4.10;1.83;;;14.90;99.90;;;;;;5006287;28;20041;-75
2022/07/28 07:21:58;;;;;;;4.43;1.38;;;14.90;99.90;;;;;;5010856;28;20247;-76
2022/07/28 07:24:24;;;;;;;3.40;1.40;;;15.10;99.90;;;;;;5009402;28;20048;-76
2022/07/28 07:26:49;;;;;;;11.45;2.45;;;15.10;99.90;;;;;;5005884;28;20102;-76
2022/07/28 07:29:15;;;;;;;3.97;1.70;;;15.20;99.90;;;;;;5023967;28;20029;-76
2022/07/28 07:31:41;;;;;;;2.75;1.40;;;15.30;99.90;;;;;;5030183;28;20045;-76
2022/07/28 07:34:07;;;;;;;2.58;1.45;;;15.30;99.90;;;;;;5012051;28;20041;-76
2022/07/28 07:36:32;;;;;;;5.22;2.50;;;15.40;99.90;;;;;;4997298;28;20090;-76
2022/07/28 07:38:58;;;;;;;4.85;1.60;;;15.50;99.90;;;;;;4988978;28;20728;-76
2022/07/28 07:41:27;;;;;;;18.05;2.45;;;15.60;99.90;;;;;;5008505;28;20053;-76
2022/07/28 07:43:53;;;;;;;6.68;1.45;;;15.60;99.90;;;;;;4997973;28;20057;-76
2022/07/28 07:46:18;;;;;;;5.00;2.25;;;15.60;99.90;;;;;;4998300;28;20548;-76
2022/07/28 07:48:44;;;;;;;2.25;1.70;;;15.70;99.90;;;;;;4999299;28;20029;-76
2022/07/28 07:51:10;;;;;;;3.60;1.30;;;15.70;99.90;;;;;;5033780;28;20037;-76
2022/07/28 07:53:35;;;;;;;5.60;1.83;;;15.80;99.90;;;;;;5003475;28;20133;-76
2022/07/28 07:56:01;;;;;;;4.90;2.00;;;15.90;99.90;;;;;;5001353;28;20041;-76
2022/07/28 07:58:27;;;;;;;5.22;1.95;;;16.00;99.90;;;;;;4982934;28;20045;-77
2022/07/28 08:00:52;;;;;;;6.03;1.60;;;16.10;99.90;;;;;;5015856;28;20047;-76
2022/07/28 08:03:19;;;;;;;5.97;1.70;;;16.20;99.90;;;;;;4968780;28;20041;-76
2022/07/28 08:05:45;;;;;;;3.42;1.52;;;16.40;99.90;;;;;;5004152;28;20396;-76
2022/07/28 08:08:11;;;;;;;6.60;2.22;;;16.50;99.90;;;;;;5003255;28;20064;-76
2022/07/28 08:10:37;;;;;;;4.28;1.65;;;16.60;99.90;;;;;;5003476;28;20122;-76
2022/07/28 08:13:05;;;;;;;3.30;1.40;;;16.70;99.90;;;;;;5001372;28;20055;-76
2022/07/28 08:15:31;;;;;;;4.10;1.33;;;16.80;99.90;;;;;;5002735;28;20041;-76
2022/07/28 08:17:57;;;;;;;2.17;1.42;;;17.00;99.90;;;;;;5018809;28;20110;-77
2022/07/28 08:20:23;;;;;;;1.45;1.00;;;17.00;99.90;;;;;;5012665;28;20499;-78
2022/07/28 08:22:55;;;;;;;4.35;1.65;;;17.20;99.90;;;;;;4999268;28;20872;-78
2022/07/28 08:25:21;;;;;;;3.42;1.60;;;17.30;99.90;;;;;;5033527;28;20061;-80
2022/07/28 08:27:47;;;;;;;3.17;1.42;;;17.40;99.90;;;;;;5019108;28;20073;-80
2022/07/28 08:30:14;;;;;;;2.67;1.27;;;17.60;99.90;;;;;;5030894;28;20026;-80
2022/07/28 08:32:41;;;;;;;2.70;1.20;;;17.80;99.90;;;;;;5029498;28;20207;-79
2022/07/28 08:35:07;;;;;;;5.65;2.00;;;17.90;99.90;;;;;;5045398;28;20033;-80
2022/07/28 08:37:33;;;;;;;3.33;1.40;;;18.10;99.90;;;;;;5029160;28;20041;-80
2022/07/28 08:39:59;;;;;;;3.05;1.65;;;18.20;99.90;;;;;;5023317;28;20525;-79
2022/07/28 08:42:37;;;;;;;2.75;1.38;;;18.20;99.90;;;;;;5013869;28;20050;-80
2022/07/28 08:45:05;;;;;;;5.18;1.70;;;18.20;99.90;;;;;;5047516;28;20045;-79
2022/07/28 08:47:34;;;;;;;7.88;1.73;;;18.20;99.90;;;;;;5017492;28;20037;-80
2022/07/28 08:50:00;;;;;;;3.60;1.40;;;18.30;99.90;;;;;;5034141;28;20052;-80
2022/07/28 08:52:31;;;;;;;3.90;1.13;;;18.50;99.60;;;;;;5020320;28;20042;-80
2022/07/28 08:54:57;;;;;;;4.25;1.25;;;18.60;99.30;;;;;;5034168;28;20481;-80
2022/07/28 08:57:40;;;;;;;4.68;1.40;;;18.70;98.70;;;;;;5045366;28;20040;-80
2022/07/28 09:00:06;;;;;;;;;;;18.90;98.90;;;;;;5021230;28;20087;-80
2022/07/28 09:02:36;;;;;;;3.53;1.30;;;18.90;98.50;;;;;;5046659;28;19917;-81
2022/07/28 09:05:03;;;;;;;1.70;0.82;;;19.00;98.90;;;;;;5048286;28;20452;-80
2022/07/28 09:07:31;;;;;;;2.05;1.23;;;18.90;98.10;;;;;;5017384;28;20052;-81
2022/07/28 09:09:56;;;;;;;3.97;1.08;;;18.90;98.00;;;;;;5017732;28;20120;-81
2022/07/28 09:12:22;;;;;;;2.83;1.50;;;18.90;97.80;;;;;;5021645;28;20122;-82
2022/07/28 09:14:48;;;;;;;3.70;1.25;;;18.90;97.30;;;;;;5026308;28;20118;-81
2022/07/28 09:17:14;;;;;;;4.57;1.02;;;19.00;97.60;;;;;;5033833;28;20525;-83
2022/07/28 09:19:39;;;;;;;2.58;1.25;;;19.20;96.90;;;;;;5016976;28;20068;-82
2022/07/28 09:22:06;;;;;;;5.70;1.35;;;19.40;96.80;;;;;;5034377;28;20045;-81
2022/07/28 09:24:41;;;;;;;3.47;1.05;;;19.50;96.20;;;;;;5001304;28;20490;-82
2022/07/28 09:27:09;;;;;;;2.03;1.08;;;19.60;95.50;;;;;;5052027;28;20045;-82
2022/07/28 09:29:37;;;;;;;1.67;1.02;;;19.70;95.10;;;;;;5033897;28;20049;-83
2022/07/28 09:32:04;;;;;;;2.95;1.50;;;19.70;95.30;;;;;;5034314;28;20044;-83
2022/07/28 09:34:44;;;;;;;3.97;1.38;;;19.90;95.30;;;;;;5017465;28;20564;-84
2022/07/28 09:37:18;;;;;;;4.40;1.27;;;19.90;94.60;;;;;;5049637;28;20082;-83
2022/07/28 09:39:44;;;;;;;1.77;0.77;;;19.90;95.30;;;;;;5006206;28;20099;-81
2022/07/28 09:42:10;;;;;;;2.72;1.30;;;19.90;95.30;;;;;;5027890;28;20053;-81
2022/07/28 09:44:36;;;;;;;12.43;1.42;;;19.90;94.50;;;;;;5040372;28;20045;-83
2022/07/28 09:47:23;;;;;;;4.65;1.40;;;19.90;94.60;;;;;;5033696;28;20041;-82
2022/07/28 09:49:49;;;;;;;2.58;1.38;;;20.10;94.90;;;;;;5033694;28;20071;-83
2022/07/28 09:52:26;;;;;;;4.47;1.55;;;20.10;95.10;;;;;;5049749;28;20502;-83
2022/07/28 09:55:03;;;;;;;4.20;1.63;;;20.10;94.40;;;;;;5033398;28;20041;-83
2022/07/28 09:57:29;;;;;;;3.20;1.23;;;20.00;94.70;;;;;;5017131;28;20476;-81
2022/07/28 09:59:56;;;;;;;2.20;1.10;;;19.80;95.00;;;;;;5033172;28;20044;-80
2022/07/28 10:02:32;;;;;;;3.15;0.93;;;19.70;94.80;;;;;;5033137;28;20047;-81
2022/07/28 10:04:59;;;;;;;3.47;1.30;;;19.70;94.90;;;;;;5039613;28;20037;-76
2022/07/28 10:07:28;;;;;;;4.20;1.42;;;19.60;95.10;;;;;;5032385;28;20037;-75
2022/07/28 10:10:00;;;;;;;7.35;1.55;;;19.60;95.40;;;;;;5032189;28;20037;-75
2022/07/28 10:12:29;;;;;;;5.50;1.42;;;19.90;95.50;;;;;;5023987;28;20033;-75
2022/07/28 10:14:58;;;;;;;4.18;1.92;;;20.10;95.20;;;;;;5004637;28;20038;-75
2022/07/28 10:17:33;;;;;;;3.17;1.63;;;20.30;94.60;;;;;;5036695;28;20559;-76
2022/07/28 10:20:04;;;;;;;1.48;1.17;;;20.50;94.20;;;;;;5024442;28;20076;-75
2022/07/28 10:22:36;;;;;;;5.17;1.10;;;20.60;93.80;;;;;;5039654;28;20049;-75
2022/07/28 10:25:08;;;;;;;4.10;1.05;;;20.50;93.30;;;;;;5012195;28;20052;-76
2022/07/28 10:27:35;;;;;;;4.43;1.17;;;20.50;93.40;;;;;;5017156;28;20033;-76
2022/07/28 10:30:03;;;;;;;3.33;1.98;;;20.70;93.10;;;;;;5032975;28;20102;-76
2022/07/28 10:32:35;;;;;;;4.13;1.20;;;21.00;93.10;;;;;;5032948;28;20041;-76
2022/07/28 10:35:07;;;;;;;1.17;1.08;;;21.30;92.80;;;;;;5032041;28;20481;-76
2022/07/28 10:37:42;;;;;;;2.45;0.93;;;21.30;91.90;;;;;;5033970;28;20041;-76
2022/07/28 10:40:09;;;;;;;3.03;1.10;;;21.10;91.40;;;;;;5019535;28;20041;-78
2022/07/28 10:42:36;;;;;;;2.92;1.27;;;20.80;92.40;;;;;;5014480;28;20588;-79
2022/07/28 10:45:03;;;;;;;2.45;1.23;;;20.80;92.60;;;;;;5013614;28;20049;-77
2022/07/28 10:47:29;;;;;;;3.33;1.75;;;20.80;92.30;;;;;;5028394;28;20048;-76
2022/07/28 10:49:55;;;;;;;1.60;1.00;;;20.80;92.40;;;;;;5008810;28;20045;-76
2022/07/28 10:52:22;;;;;;;2.28;1.23;;;20.70;91.90;;;;;;5017159;28;20088;-76
2022/07/28 10:54:59;;;;;;;2.08;1.00;;;20.70;91.90;;;;;;5017321;28;20107;-75
2022/07/28 10:57:27;;;;;;;4.63;1.60;;;20.80;91.50;;;;;;5000896;28;20514;-76
2022/07/28 11:00:04;;;;;;;1.48;0.90;;;20.80;91.50;;;;;;5026334;28;20046;-76
2022/07/28 11:02:46;;;;;;;2.90;1.65;;;20.80;91.50;;;;;;5015524;28;20057;-76
2022/07/28 11:05:27;;;;;;;;;;;20.90;91.40;;;;;;5013271;28;20503;-76
2022/07/28 11:07:54;;;;;;;4.15;1.33;;;20.80;91.40;;;;;;5032590;28;19921;-76
2022/07/28 11:10:21;;;;;;;3.33;1.17;;;20.80;91.90;;;;;;5003419;28;20030;-76
2022/07/28 11:12:51;;;;;;;2.55;1.10;;;20.80;91.50;;;;;;5014590;28;20324;-75
2022/07/28 11:15:34;;;;;;;2.28;0.93;;;20.90;91.70;;;;;;5012867;28;20037;-76
2022/07/28 11:18:05;;;;;;;1.77;1.10;;;21.10;90.90;;;;;;5033235;28;20403;-74
2022/07/28 11:20:50;;;;;;;3.20;1.15;;;21.50;91.30;;;;;;5008942;28;20042;-71
2022/07/28 11:23:39;;;;;;;2.70;1.13;;;21.70;90.50;;;;;;5015301;28;20049;-72
2022/07/28 11:26:20;;;;;;;1.08;0.88;;;21.70;90.30;;;;;;5010828;28;20085;-72
2022/07/28 11:29:10;;;;;;;3.38;1.05;;;21.70;89.80;;;;;;5025401;28;20087;-72
2022/07/28 11:31:47;;;;;;;4.07;1.30;;;21.70;88.90;;;;;;4996663;28;20072;-72
2022/07/28 11:34:21;;;;;;;3.50;0.95;;;21.70;89.90;;;;;;5030120;28;20037;-72
2022/07/28 11:37:03;;;;;;;2.80;1.15;;;21.80;89.30;;;;;;5022890;28;20076;-72
2022/07/28 11:39:30;;;;;;;;;;;21.90;87.80;;;;;;5050017;28;20053;-72
2022/07/28 11:41:56;;;;;;;2.97;1.10;;;21.80;88.40;;;;;;5036897;28;20006;-71
2022/07/28 11:44:27;;;;;;;2.25;0.93;;;21.90;88.60;;;;;;5033741;28;20126;-71
2022/07/28 11:47:14;;;;;;;2.78;1.17;;;22.00;89.20;;;;;;5016844;28;20033;-72
2022/07/28 11:49:40;;;;;;;4.57;2.28;;;22.10;90.50;;;;;;5038697;28;20069;-72
2022/07/28 11:52:14;;;;;;;2.75;1.48;;;22.20;90.80;;;;;;5007525;28;20065;-72
2022/07/28 11:54:41;;;;;;;6.53;1.00;;;22.30;90.40;;;;;;5026495;28;20099;-75
2022/07/28 11:57:08;;;;;;;4.43;1.15;;;22.30;90.80;;;;;;5022887;28;20041;-73
2022/07/28 11:59:46;;;;;;;5.70;1.25;;;22.30;90.10;;;;;;5004829;28;20036;-73
2022/07/28 12:02:17;;;;;;;2.88;1.25;;;22.40;90.30;;;;;;5021108;28;20064;-73
2022/07/28 12:04:44;;;;;;;2.45;1.13;;;22.20;88.50;;;;;;4985600;28;20045;-73
2022/07/28 12:07:11;;;;;;;3.53;1.33;;;22.00;89.10;;;;;;5002198;28;20045;-73
2022/07/28 12:09:37;;;;;;;4.07;1.17;;;22.00;89.60;;;;;;5034824;28;20112;-73
2022/07/28 12:12:06;;;;;;;1.75;1.02;;;22.20;89.50;;;;;;5021546;28;20097;-73
2022/07/28 12:14:39;;;;;;;1.98;1.30;;;22.30;88.70;;;;;;5007195;28;20037;-74
2022/07/28 12:17:06;;;;;;;3.50;1.30;;;22.30;88.60;;;;;;5005389;28;20044;-74
2022/07/28 12:19:31;;;;;;;2.72;1.30;;;22.40;88.50;;;;;;4990966;28;20179;-74
2022/07/28 12:21:57;;;;;;;2.78;1.23;;;22.30;86.50;;;;;;5018105;28;20483;-74
2022/07/28 12:24:29;;;;;;;1.48;0.98;;;22.30;88.00;;;;;;5006447;28;20049;-74
2022/07/28 12:26:56;;;;;;;3.22;1.23;;;22.50;89.50;;;;;;5021675;28;20041;-73
2022/07/28 12:29:22;;;;;;;2.17;1.08;;;22.50;87.20;;;;;;5023306;28;20041;-74
2022/07/28 12:32:03;;;;;;;5.63;1.35;;;22.50;87.30;;;;;;5005768;28;20041;-74
2022/07/28 12:34:30;;;;;;;3.08;1.27;;;22.30;86.30;;;;;;5016636;28;20623;-75
2022/07/28 12:37:01;;;;;;;3.42;1.05;;;22.50;87.90;;;;;;5023236;28;20052;-75
2022/07/28 12:39:29;;;;;;;1.95;1.30;;;22.60;86.90;;;;;;5020193;28;20032;-75
2022/07/28 12:42:04;;;;;;;2.05;0.98;;;22.40;86.90;;;;;;5021302;28;20057;-75
2022/07/28 12:44:41;;;;;;;2.92;1.30;;;22.30;86.80;;;;;;5036196;28;20045;-74
2022/07/28 12:47:10;;;;;;;4.10;1.48;;;22.20;87.40;;;;;;5009286;28;20052;-75
2022/07/28 12:49:38;;;;;;;3.28;1.17;;;21.80;87.60;;;;;;5021606;28;20449;-75
2022/07/28 12:52:16;;;;;;;2.42;1.25;;;21.70;87.90;;;;;;5039203;28;20591;-75
2022/07/28 12:54:42;;;;;;;2.78;1.67;;;21.50;89.00;;;;;;5027309;28;20033;-75